sensor_id;sensor_type;location;lat;lon;timestamp;pressure;altitude;pressure_sealevel;temperature;humidity
41703;BME280;861;48.808;9.006;2023-08-07T00:01:33;96943.81;;;12.78;87.91
41703;BME280;861;48.808;9.006;2023-08-07T00:04:00;96945.63;;;13.02;85.70
41703;BME280;861;48.808;9.006;2023-08-07T00:06:27;96949.53;;;13.01;85.06
41703;BME280;861;48.808;9.006;2023-08-07T00:08:54;96945.53;;;13.13;83.84
41703;BME280;861;48.808;9.006;2023-08-07T00:11:21;96951.50;;;13.01;83.98
41703;BME280;861;48.808;9.006;2023-08-07T00:13:48;96947.63;;;12.91;85.05
41703;BME280;861;48.808;9.006;2023-08-07T00:16:15;96947.16;;;13.03;84.96
41703;BME280;861;48.808;9.006;2023-08-07T00:18:41;96955.00;;;12.98;84.79
41703;BME280;861;48.808;9.006;2023-08-07T00:21:08;96956.97;;;13.01;85.04
41703;BME280;861;48.808;9.006;2023-08-07T00:23:34;96949.47;;;13.08;84.25
41703;BME280;861;48.808;9.006;2023-08-07T00:26:01;96958.84;;;13.07;83.91
41703;BME280;861;48.808;9.006;2023-08-07T00:28:28;96954.09;;;13.15;82.49
41703;BME280;861;48.808;9.006;2023-08-07T00:30:56;96957.66;;;13.08;82.93
41703;BME280;861;48.808;9.006;2023-08-07T00:33:22;96952.16;;;13.15;83.06
41703;BME280;861;48.808;9.006;2023-08-07T00:35:49;96953.00;;;13.09;83.61
41703;BME280;861;48.808;9.006;2023-08-07T00:38:16;96957.34;;;13.03;83.62
41703;BME280;861;48.808;9.006;2023-08-07T00:40:42;96955.63;;;13.19;83.46
41703;BME280;861;48.808;9.006;2023-08-07T00:43:09;96971.75;;;13.07;83.00
41703;BME280;861;48.808;9.006;2023-08-07T00:45:47;96974.16;;;13.01;83.25
41703;BME280;861;48.808;9.006;2023-08-07T00:48:17;96962.31;;;13.11;83.31
41703;BME280;861;48.808;9.006;2023-08-07T00:50:47;96960.06;;;12.99;82.93
41703;BME280;861;48.808;9.006;2023-08-07T00:53:16;96962.38;;;13.08;82.65
41703;BME280;861;48.808;9.006;2023-08-07T00:55:43;96970.09;;;13.16;82.68
41703;BME280;861;48.808;9.006;2023-08-07T00:58:11;96974.09;;;13.05;83.62
41703;BME280;861;48.808;9.006;2023-08-07T01:00:38;96981.72;;;13.27;82.25
41703;BME280;861;48.808;9.006;2023-08-07T01:03:08;96983.03;;;13.12;83.06
41703;BME280;861;48.808;9.006;2023-08-07T01:05:38;96976.69;;;13.22;81.96
41703;BME280;861;48.808;9.006;2023-08-07T01:08:05;96982.69;;;13.03;83.48
41703;BME280;861;48.808;9.006;2023-08-07T01:17:08;96992.47;;;13.04;82.61
41703;BME280;861;48.808;9.006;2023-08-07T01:19:38;96980.72;;;13.07;81.00
41703;BME280;861;48.808;9.006;2023-08-07T01:22:15;96986.53;;;13.13;80.78
41703;BME280;861;48.808;9.006;2023-08-07T01:24:47;96983.78;;;13.16;80.88
41703;BME280;861;48.808;9.006;2023-08-07T01:33:22;96985.31;;;13.17;79.07
41703;BME280;861;48.808;9.006;2023-08-07T01:35:58;96993.16;;;13.15;79.06
41703;BME280;861;48.808;9.006;2023-08-07T01:38:33;96987.31;;;13.13;79.07
41703;BME280;861;48.808;9.006;2023-08-07T01:41:03;96994.03;;;13.02;78.99
41703;BME280;861;48.808;9.006;2023-08-07T01:43:30;97001.78;;;13.14;78.87
41703;BME280;861;48.808;9.006;2023-08-07T01:45:58;96993.22;;;13.08;80.53
41703;BME280;861;48.808;9.006;2023-08-07T01:48:26;96997.50;;;13.09;80.24
41703;BME280;861;48.808;9.006;2023-08-07T01:50:54;96992.41;;;13.11;79.55
41703;BME280;861;48.808;9.006;2023-08-07T01:53:21;96999.84;;;13.11;79.35
41703;BME280;861;48.808;9.006;2023-08-07T01:55:48;96999.09;;;13.07;78.99
41703;BME280;861;48.808;9.006;2023-08-07T01:58:14;96996.75;;;13.05;79.21
41703;BME280;861;48.808;9.006;2023-08-07T02:00:41;97001.00;;;13.10;79.59
41703;BME280;861;48.808;9.006;2023-08-07T02:03:07;96989.22;;;13.20;77.72
41703;BME280;861;48.808;9.006;2023-08-07T02:05:34;96996.19;;;13.28;77.07
41703;BME280;861;48.808;9.006;2023-08-07T02:08:01;96997.03;;;13.21;77.79
41703;BME280;861;48.808;9.006;2023-08-07T02:10:27;96995.59;;;13.03;78.80
41703;BME280;861;48.808;9.006;2023-08-07T02:12:54;97001.72;;;13.17;78.51
41703;BME280;861;48.808;9.006;2023-08-07T02:15:23;97000.47;;;13.29;78.98
41703;BME280;861;48.808;9.006;2023-08-07T02:17:49;97009.47;;;13.29;78.08
41703;BME280;861;48.808;9.006;2023-08-07T02:20:16;97005.50;;;13.34;78.51
41703;BME280;861;48.808;9.006;2023-08-07T02:22:42;97016.84;;;13.32;78.31
41703;BME280;861;48.808;9.006;2023-08-07T02:25:09;97009.94;;;13.17;77.85
41703;BME280;861;48.808;9.006;2023-08-07T02:27:35;97011.81;;;13.27;77.35
41703;BME280;861;48.808;9.006;2023-08-07T02:30:03;97016.13;;;13.25;77.12
41703;BME280;861;48.808;9.006;2023-08-07T02:32:30;97006.81;;;13.19;78.06
41703;BME280;861;48.808;9.006;2023-08-07T02:34:57;97006.44;;;13.13;78.11
41703;BME280;861;48.808;9.006;2023-08-07T02:37:24;97015.09;;;13.05;78.38
41703;BME280;861;48.808;9.006;2023-08-07T02:39:50;96996.72;;;13.12;77.11
41703;BME280;861;48.808;9.006;2023-08-07T02:42:16;97007.59;;;13.16;76.56
41703;BME280;861;48.808;9.006;2023-08-07T02:44:42;97000.66;;;13.04;77.25
41703;BME280;861;48.808;9.006;2023-08-07T02:47:08;97008.00;;;13.14;75.93
41703;BME280;861;48.808;9.006;2023-08-07T02:49:34;97011.91;;;13.13;77.22
41703;BME280;861;48.808;9.006;2023-08-07T02:52:01;97024.13;;;12.98;77.82
41703;BME280;861;48.808;9.006;2023-08-07T02:54:27;97023.00;;;12.89;77.40
41703;BME280;861;48.808;9.006;2023-08-07T02:56:53;97012.88;;;12.86;78.46
41703;BME280;861;48.808;9.006;2023-08-07T02:59:19;97017.25;;;12.76;78.20
41703;BME280;861;48.808;9.006;2023-08-07T03:01:45;97027.69;;;12.88;77.59
41703;BME280;861;48.808;9.006;2023-08-07T03:04:12;97023.78;;;12.89;77.80
41703;BME280;861;48.808;9.006;2023-08-07T03:06:38;97033.50;;;13.01;77.02
41703;BME280;861;48.808;9.006;2023-08-07T03:09:04;97036.22;;;13.01;78.14
41703;BME280;861;48.808;9.006;2023-08-07T03:11:30;97030.03;;;12.86;76.95
41703;BME280;861;48.808;9.006;2023-08-07T03:13:56;97037.00;;;12.94;76.99
41703;BME280;861;48.808;9.006;2023-08-07T03:16:23;97037.03;;;12.91;77.02
41703;BME280;861;48.808;9.006;2023-08-07T03:18:49;97039.38;;;12.92;77.81
41703;BME280;861;48.808;9.006;2023-08-07T03:21:15;97026.09;;;12.91;77.15
41703;BME280;861;48.808;9.006;2023-08-07T03:23:41;97038.56;;;12.95;77.15
41703;BME280;861;48.808;9.006;2023-08-07T03:26:12;97049.91;;;12.94;78.04
41703;BME280;861;48.808;9.006;2023-08-07T03:28:39;97031.50;;;13.05;77.62
41703;BME280;861;48.808;9.006;2023-08-07T03:31:06;97036.59;;;12.99;77.37
41703;BME280;861;48.808;9.006;2023-08-07T03:33:32;97035.47;;;12.97;77.80
41703;BME280;861;48.808;9.006;2023-08-07T03:35:58;97036.56;;;13.06;77.47
41703;BME280;861;48.808;9.006;2023-08-07T03:38:25;97030.75;;;12.97;77.16
41703;BME280;861;48.808;9.006;2023-08-07T03:40:51;97026.84;;;13.02;77.60
41703;BME280;861;48.808;9.006;2023-08-07T03:43:17;97027.28;;;12.93;77.36
41703;BME280;861;48.808;9.006;2023-08-07T03:45:44;97027.69;;;12.92;77.95
41703;BME280;861;48.808;9.006;2023-08-07T03:48:10;97033.13;;;12.92;78.16
41703;BME280;861;48.808;9.006;2023-08-07T03:50:36;97035.56;;;12.76;78.65
41703;BME280;861;48.808;9.006;2023-08-07T03:53:06;97028.00;;;12.97;77.34
41703;BME280;861;48.808;9.006;2023-08-07T03:55:34;97025.75;;;12.85;77.29
41703;BME280;861;48.808;9.006;2023-08-07T03:58:00;97021.91;;;12.79;77.88
41703;BME280;861;48.808;9.006;2023-08-07T04:00:27;97023.03;;;12.82;77.36
41703;BME280;861;48.808;9.006;2023-08-07T04:02:53;97029.22;;;12.89;78.30
41703;BME280;861;48.808;9.006;2023-08-07T04:05:20;97038.97;;;13.01;77.11
41703;BME280;861;48.808;9.006;2023-08-07T04:07:46;97026.94;;;12.84;77.50
41703;BME280;861;48.808;9.006;2023-08-07T04:10:12;97034.81;;;12.72;78.36
41703;BME280;861;48.808;9.006;2023-08-07T04:12:38;97020.00;;;12.66;78.58
41703;BME280;861;48.808;9.006;2023-08-07T04:15:06;97029.69;;;12.84;77.59
41703;BME280;861;48.808;9.006;2023-08-07T04:17:32;97031.69;;;12.73;78.30
41703;BME280;861;48.808;9.006;2023-08-07T04:19:59;97032.44;;;12.81;77.92
41703;BME280;861;48.808;9.006;2023-08-07T04:22:25;97032.00;;;12.86;77.55
41703;BME280;861;48.808;9.006;2023-08-07T04:24:51;97029.94;;;13.04;76.81
41703;BME280;861;48.808;9.006;2023-08-07T04:27:17;97040.88;;;13.07;75.56
41703;BME280;861;48.808;9.006;2023-08-07T04:29:44;97044.44;;;12.94;75.80
41703;BME280;861;48.808;9.006;2023-08-07T04:32:12;97043.63;;;13.00;76.24
41703;BME280;861;48.808;9.006;2023-08-07T04:34:38;97042.50;;;12.91;77.24
41703;BME280;861;48.808;9.006;2023-08-07T04:37:05;97040.09;;;13.07;76.51
41703;BME280;861;48.808;9.006;2023-08-07T04:39:32;97052.69;;;12.87;76.99
41703;BME280;861;48.808;9.006;2023-08-07T04:41:58;97057.69;;;12.99;77.20
41703;BME280;861;48.808;9.006;2023-08-07T04:44:25;97055.69;;;13.06;77.36
41703;BME280;861;48.808;9.006;2023-08-07T04:46:51;97046.72;;;13.09;76.64
41703;BME280;861;48.808;9.006;2023-08-07T04:49:18;97043.59;;;13.07;77.27
41703;BME280;861;48.808;9.006;2023-08-07T04:51:44;97054.94;;;12.99;77.33
41703;BME280;861;48.808;9.006;2023-08-07T04:54:10;97054.97;;;13.02;76.72
41703;BME280;861;48.808;9.006;2023-08-07T04:56:37;97048.75;;;12.95;76.92
41703;BME280;861;48.808;9.006;2023-08-07T04:59:03;97047.06;;;13.15;76.37
41703;BME280;861;48.808;9.006;2023-08-07T05:01:29;97054.44;;;13.21;76.72
41703;BME280;861;48.808;9.006;2023-08-07T05:03:55;97058.06;;;13.04;77.52
41703;BME280;861;48.808;9.006;2023-08-07T05:06:21;97052.97;;;13.06;77.12
41703;BME280;861;48.808;9.006;2023-08-07T05:08:47;97056.41;;;13.17;76.53
41703;BME280;861;48.808;9.006;2023-08-07T05:11:13;97057.59;;;13.13;77.81
41703;BME280;861;48.808;9.006;2023-08-07T05:13:41;97059.09;;;13.24;76.75
41703;BME280;861;48.808;9.006;2023-08-07T05:16:07;97060.53;;;13.39;76.69
41703;BME280;861;48.808;9.006;2023-08-07T05:18:33;97042.66;;;13.31;77.36
41703;BME280;861;48.808;9.006;2023-08-07T05:20:59;97057.19;;;13.21;76.98
41703;BME280;861;48.808;9.006;2023-08-07T05:23:25;97048.84;;;13.39;76.99
41703;BME280;861;48.808;9.006;2023-08-07T05:25:52;97062.50;;;13.42;76.54
41703;BME280;861;48.808;9.006;2023-08-07T05:28:18;97062.03;;;13.47;76.11
41703;BME280;861;48.808;9.006;2023-08-07T05:30:44;97069.78;;;13.59;75.85
41703;BME280;861;48.808;9.006;2023-08-07T05:33:10;97067.50;;;13.47;76.58
41703;BME280;861;48.808;9.006;2023-08-07T05:35:38;97081.44;;;13.67;75.38
41703;BME280;861;48.808;9.006;2023-08-07T05:38:04;97080.44;;;13.43;76.30
41703;BME280;861;48.808;9.006;2023-08-07T05:40:31;97078.75;;;13.60;74.65
41703;BME280;861;48.808;9.006;2023-08-07T05:42:57;97077.56;;;13.64;75.08
41703;BME280;861;48.808;9.006;2023-08-07T05:45:23;97089.66;;;13.63;75.57
41703;BME280;861;48.808;9.006;2023-08-07T05:47:50;97099.88;;;13.59;75.39
41703;BME280;861;48.808;9.006;2023-08-07T05:50:16;97088.31;;;13.82;73.89
41703;BME280;861;48.808;9.006;2023-08-07T05:52:42;97097.72;;;13.81;74.21
41703;BME280;861;48.808;9.006;2023-08-07T05:55:08;97100.47;;;13.81;73.67
41703;BME280;861;48.808;9.006;2023-08-07T05:57:35;97094.28;;;13.73;74.44
41703;BME280;861;48.808;9.006;2023-08-07T06:00:01;97115.47;;;13.62;75.95
41703;BME280;861;48.808;9.006;2023-08-07T06:02:27;97108.25;;;13.86;74.53
41703;BME280;861;48.808;9.006;2023-08-07T06:04:54;97100.81;;;13.87;73.57
41703;BME280;861;48.808;9.006;2023-08-07T06:07:20;97109.50;;;13.74;75.26
41703;BME280;861;48.808;9.006;2023-08-07T06:09:46;97113.44;;;13.73;76.03
41703;BME280;861;48.808;9.006;2023-08-07T06:12:12;97113.53;;;14.07;74.96
41703;BME280;861;48.808;9.006;2023-08-07T06:14:38;97113.19;;;14.02;74.84
41703;BME280;861;48.808;9.006;2023-08-07T06:17:05;97117.00;;;14.11;74.71
41703;BME280;861;48.808;9.006;2023-08-07T06:19:31;97110.84;;;14.00;75.05
41703;BME280;861;48.808;9.006;2023-08-07T06:21:57;97114.31;;;14.04;75.90
41703;BME280;861;48.808;9.006;2023-08-07T06:24:23;97120.13;;;14.13;75.64
41703;BME280;861;48.808;9.006;2023-08-07T06:26:51;97121.13;;;14.30;75.45
41703;BME280;861;48.808;9.006;2023-08-07T06:29:17;97127.41;;;14.30;73.73
41703;BME280;861;48.808;9.006;2023-08-07T06:31:43;97125.13;;;14.18;73.83
41703;BME280;861;48.808;9.006;2023-08-07T06:34:09;97123.19;;;14.15;75.05
41703;BME280;861;48.808;9.006;2023-08-07T06:36:36;97134.03;;;14.29;75.05
41703;BME280;861;48.808;9.006;2023-08-07T06:39:02;97131.28;;;14.33;73.73
41703;BME280;861;48.808;9.006;2023-08-07T06:41:29;97137.06;;;14.42;74.48
41703;BME280;861;48.808;9.006;2023-08-07T06:43:56;97123.00;;;14.40;74.07
41703;BME280;861;48.808;9.006;2023-08-07T06:46:22;97119.16;;;14.34;73.83
41703;BME280;861;48.808;9.006;2023-08-07T06:48:52;97119.34;;;14.50;72.67
41703;BME280;861;48.808;9.006;2023-08-07T06:51:18;97124.13;;;14.42;71.96
41703;BME280;861;48.808;9.006;2023-08-07T06:53:44;97107.28;;;14.44;70.81
41703;BME280;861;48.808;9.006;2023-08-07T06:56:11;97117.28;;;14.20;72.64
41703;BME280;861;48.808;9.006;2023-08-07T06:58:37;97123.28;;;14.49;70.16
41703;BME280;861;48.808;9.006;2023-08-07T07:01:03;97116.84;;;14.29;70.54
41703;BME280;861;48.808;9.006;2023-08-07T07:03:29;97115.25;;;14.31;70.24
41703;BME280;861;48.808;9.006;2023-08-07T07:05:56;97124.88;;;14.46;70.02
41703;BME280;861;48.808;9.006;2023-08-07T07:08:22;97129.72;;;14.32;68.29
41703;BME280;861;48.808;9.006;2023-08-07T07:10:49;97130.56;;;14.25;69.95
41703;BME280;861;48.808;9.006;2023-08-07T07:13:15;97129.34;;;14.30;69.77
41703;BME280;861;48.808;9.006;2023-08-07T07:15:42;97138.34;;;14.30;70.26
41703;BME280;861;48.808;9.006;2023-08-07T07:18:09;97137.28;;;14.17;70.90
41703;BME280;861;48.808;9.006;2023-08-07T07:20:35;97130.22;;;14.20;71.49
41703;BME280;861;48.808;9.006;2023-08-07T07:23:02;97148.59;;;14.23;71.30
41703;BME280;861;48.808;9.006;2023-08-07T07:25:28;97140.81;;;14.18;72.11
41703;BME280;861;48.808;9.006;2023-08-07T07:27:55;97142.66;;;14.31;72.41
41703;BME280;861;48.808;9.006;2023-08-07T07:30:22;97140.69;;;14.32;73.15
41703;BME280;861;48.808;9.006;2023-08-07T07:32:50;97153.88;;;14.77;70.39
41703;BME280;861;48.808;9.006;2023-08-07T07:35:17;97140.72;;;14.95;69.97
41703;BME280;861;48.808;9.006;2023-08-07T07:37:44;97143.53;;;15.22;68.94
41703;BME280;861;48.808;9.006;2023-08-07T07:40:11;97149.19;;;15.38;67.81
41703;BME280;861;48.808;9.006;2023-08-07T07:42:37;97159.88;;;15.29;66.80
41703;BME280;861;48.808;9.006;2023-08-07T07:45:07;97162.72;;;15.22;66.91
41703;BME280;861;48.808;9.006;2023-08-07T07:47:34;97166.78;;;15.10;67.37
41703;BME280;861;48.808;9.006;2023-08-07T07:50:09;97169.97;;;15.39;65.81
41703;BME280;861;48.808;9.006;2023-08-07T07:52:36;97172.78;;;15.32;68.63
41703;BME280;861;48.808;9.006;2023-08-07T07:55:02;97175.97;;;15.27;67.28
41703;BME280;861;48.808;9.006;2023-08-07T07:57:29;97184.28;;;15.23;69.04
41703;BME280;861;48.808;9.006;2023-08-07T07:59:56;97175.06;;;15.37;66.35
41703;BME280;861;48.808;9.006;2023-08-07T08:02:23;97172.25;;;15.14;66.48
41703;BME280;861;48.808;9.006;2023-08-07T08:04:52;97172.06;;;14.98;66.52
41703;BME280;861;48.808;9.006;2023-08-07T08:07:19;97183.00;;;14.98;66.15
41703;BME280;861;48.808;9.006;2023-08-07T08:09:46;97177.94;;;14.96;67.01
41703;BME280;861;48.808;9.006;2023-08-07T08:12:13;97188.56;;;14.91;68.26
41703;BME280;861;48.808;9.006;2023-08-07T08:14:40;97192.78;;;14.99;68.42
41703;BME280;861;48.808;9.006;2023-08-07T08:17:06;97182.44;;;15.13;65.84
41703;BME280;861;48.808;9.006;2023-08-07T08:19:33;97189.38;;;15.21;64.67
41703;BME280;861;48.808;9.006;2023-08-07T08:22:00;97192.75;;;15.32;65.18
41703;BME280;861;48.808;9.006;2023-08-07T08:24:26;97194.66;;;15.39;65.53
41703;BME280;861;48.808;9.006;2023-08-07T08:26:53;97197.31;;;15.46;65.99
41703;BME280;861;48.808;9.006;2023-08-07T08:29:20;97202.03;;;15.46;66.13
41703;BME280;861;48.808;9.006;2023-08-07T08:31:46;97189.22;;;15.89;65.05
41703;BME280;861;48.808;9.006;2023-08-07T08:34:14;97191.41;;;16.01;64.06
41703;BME280;861;48.808;9.006;2023-08-07T08:36:41;97200.31;;;16.08;63.94
41703;BME280;861;48.808;9.006;2023-08-07T08:39:07;97191.63;;;16.10;62.55
41703;BME280;861;48.808;9.006;2023-08-07T08:41:35;97203.75;;;16.12;62.93
41703;BME280;861;48.808;9.006;2023-08-07T08:44:05;97203.41;;;16.10;60.52
41703;BME280;861;48.808;9.006;2023-08-07T08:46:35;97198.91;;;15.97;61.12
41703;BME280;861;48.808;9.006;2023-08-07T08:49:06;97200.66;;;16.10;61.82
41703;BME280;861;48.808;9.006;2023-08-07T08:51:37;97196.41;;;16.06;61.01
41703;BME280;861;48.808;9.006;2023-08-07T08:54:04;97191.13;;;15.92;60.91
41703;BME280;861;48.808;9.006;2023-08-07T08:56:33;97199.53;;;15.81;60.62
41703;BME280;861;48.808;9.006;2023-08-07T08:59:01;97210.72;;;15.94;62.23
41703;BME280;861;48.808;9.006;2023-08-07T09:01:29;97202.88;;;16.19;61.81
41703;BME280;861;48.808;9.006;2023-08-07T09:03:58;97206.59;;;16.55;59.70
41703;BME280;861;48.808;9.006;2023-08-07T09:06:28;97206.84;;;16.64;60.04
41703;BME280;861;48.808;9.006;2023-08-07T09:09:00;97200.97;;;16.62;59.31
41703;BME280;861;48.808;9.006;2023-08-07T09:11:28;97199.59;;;16.50;60.93
41703;BME280;861;48.808;9.006;2023-08-07T09:13:56;97193.78;;;16.68;62.85
41703;BME280;861;48.808;9.006;2023-08-07T09:16:24;97200.50;;;16.87;62.53
41703;BME280;861;48.808;9.006;2023-08-07T09:18:52;97215.31;;;16.93;61.88
41703;BME280;861;48.808;9.006;2023-08-07T09:21:22;97211.50;;;16.87;58.38
41703;BME280;861;48.808;9.006;2023-08-07T09:23:49;97218.06;;;16.73;59.46
41703;BME280;861;48.808;9.006;2023-08-07T09:26:23;97218.97;;;16.86;59.28
41703;BME280;861;48.808;9.006;2023-08-07T09:28:53;97230.84;;;17.03;57.79
41703;BME280;861;48.808;9.006;2023-08-07T09:31:22;97227.56;;;16.88;58.29
41703;BME280;861;48.808;9.006;2023-08-07T09:33:52;97226.56;;;16.78;58.75
41703;BME280;861;48.808;9.006;2023-08-07T09:36:19;97229.94;;;16.66;60.98
41703;BME280;861;48.808;9.006;2023-08-07T09:38:52;97241.31;;;16.68;60.15
41703;BME280;861;48.808;9.006;2023-08-07T09:41:19;97230.16;;;16.75;58.41
41703;BME280;861;48.808;9.006;2023-08-07T09:43:46;97249.31;;;17.02;58.58
41703;BME280;861;48.808;9.006;2023-08-07T09:46:13;97243.31;;;16.88;59.42
41703;BME280;861;48.808;9.006;2023-08-07T09:48:42;97249.03;;;17.16;58.66
41703;BME280;861;48.808;9.006;2023-08-07T09:51:10;97228.59;;;17.56;57.50
41703;BME280;861;48.808;9.006;2023-08-07T09:53:38;97241.97;;;17.74;56.32
41703;BME280;861;48.808;9.006;2023-08-07T09:56:05;97242.66;;;17.78;58.33
41703;BME280;861;48.808;9.006;2023-08-07T09:58:32;97237.69;;;17.89;58.89
41703;BME280;861;48.808;9.006;2023-08-07T10:01:04;97250.19;;;18.45;57.25
41703;BME280;861;48.808;9.006;2023-08-07T10:03:32;97236.25;;;18.65;56.31
41703;BME280;861;48.808;9.006;2023-08-07T10:05:59;97225.09;;;18.56;54.73
41703;BME280;861;48.808;9.006;2023-08-07T10:08:26;97240.66;;;18.78;57.94
41703;BME280;861;48.808;9.006;2023-08-07T10:10:52;97232.09;;;19.17;55.82
41703;BME280;861;48.808;9.006;2023-08-07T10:13:22;97223.38;;;19.60;53.92
41703;BME280;861;48.808;9.006;2023-08-07T10:15:51;97225.53;;;19.40;52.84
41703;BME280;861;48.808;9.006;2023-08-07T10:18:18;97238.06;;;19.44;53.80
41703;BME280;861;48.808;9.006;2023-08-07T10:20:45;97239.38;;;19.11;53.04
41703;BME280;861;48.808;9.006;2023-08-07T10:23:15;97237.41;;;18.67;53.21
41703;BME280;861;48.808;9.006;2023-08-07T10:25:47;97236.66;;;18.95;53.98
41703;BME280;861;48.808;9.006;2023-08-07T10:28:20;97230.34;;;19.23;51.61
41703;BME280;861;48.808;9.006;2023-08-07T10:30:51;97244.69;;;18.74;52.98
41703;BME280;861;48.808;9.006;2023-08-07T10:33:19;97238.72;;;18.47;55.12
41703;BME280;861;48.808;9.006;2023-08-07T10:35:47;97259.00;;;18.37;53.58
41703;BME280;861;48.808;9.006;2023-08-07T10:38:15;97255.28;;;18.11;53.48
41703;BME280;861;48.808;9.006;2023-08-07T10:41:12;97255.31;;;17.75;55.41
41703;BME280;861;48.808;9.006;2023-08-07T10:43:45;97253.00;;;17.74;55.88
41703;BME280;861;48.808;9.006;2023-08-07T10:46:20;97243.97;;;17.89;55.88
41703;BME280;861;48.808;9.006;2023-08-07T10:48:55;97246.47;;;17.84;53.97
41703;BME280;861;48.808;9.006;2023-08-07T10:51:30;97263.63;;;17.91;55.60
41703;BME280;861;48.808;9.006;2023-08-07T10:53:57;97255.19;;;17.98;54.30
41703;BME280;861;48.808;9.006;2023-08-07T10:56:34;97253.47;;;17.88;54.50
41703;BME280;861;48.808;9.006;2023-08-07T10:59:11;97250.88;;;17.62;56.33
41703;BME280;861;48.808;9.006;2023-08-07T11:04:15;97254.78;;;17.64;55.80
41703;BME280;861;48.808;9.006;2023-08-07T11:06:44;97254.50;;;17.39;57.65
41703;BME280;861;48.808;9.006;2023-08-07T11:09:13;97262.94;;;17.29;58.66
41703;BME280;861;48.808;9.006;2023-08-07T11:11:45;97264.09;;;17.31;57.73
41703;BME280;861;48.808;9.006;2023-08-07T11:14:18;97259.38;;;17.32;59.19
41703;BME280;861;48.808;9.006;2023-08-07T11:16:48;97268.41;;;17.52;57.93
41703;BME280;861;48.808;9.006;2023-08-07T11:19:17;97266.34;;;17.36;56.78
41703;BME280;861;48.808;9.006;2023-08-07T11:21:44;97268.50;;;17.06;57.00
41703;BME280;861;48.808;9.006;2023-08-07T11:24:16;97271.97;;;16.90;58.15
41703;BME280;861;48.808;9.006;2023-08-07T11:26:45;97274.06;;;16.83;58.89
41703;BME280;861;48.808;9.006;2023-08-07T11:29:19;97271.38;;;16.79;59.70
41703;BME280;861;48.808;9.006;2023-08-07T11:31:46;97272.50;;;16.81;60.08
41703;BME280;861;48.808;9.006;2023-08-07T11:34:13;97276.38;;;16.84;58.85
41703;BME280;861;48.808;9.006;2023-08-07T11:36:43;97268.19;;;16.80;59.92
41703;BME280;861;48.808;9.006;2023-08-07T11:39:13;97274.41;;;16.61;61.10
41703;BME280;861;48.808;9.006;2023-08-07T11:41:40;97276.94;;;16.75;60.46
41703;BME280;861;48.808;9.006;2023-08-07T11:44:10;97273.59;;;16.64;61.66
41703;BME280;861;48.808;9.006;2023-08-07T11:46:37;97274.28;;;16.92;61.19
41703;BME280;861;48.808;9.006;2023-08-07T11:49:05;97279.91;;;16.84;59.71
41703;BME280;861;48.808;9.006;2023-08-07T11:51:32;97281.22;;;17.00;59.45
41703;BME280;861;48.808;9.006;2023-08-07T11:53:59;97273.88;;;16.93;59.97
41703;BME280;861;48.808;9.006;2023-08-07T11:56:26;97279.84;;;16.88;61.61
41703;BME280;861;48.808;9.006;2023-08-07T11:58:54;97290.41;;;17.13;61.41
41703;BME280;861;48.808;9.006;2023-08-07T12:01:25;97277.44;;;17.52;58.67
41703;BME280;861;48.808;9.006;2023-08-07T12:04:11;97278.97;;;17.34;59.54
41703;BME280;861;48.808;9.006;2023-08-07T12:06:45;97284.97;;;17.29;62.08
41703;BME280;861;48.808;9.006;2023-08-07T12:09:22;97286.31;;;17.21;63.20
41703;BME280;861;48.808;9.006;2023-08-07T12:11:48;97282.25;;;17.48;61.04
41703;BME280;861;48.808;9.006;2023-08-07T12:14:17;97288.38;;;17.56;62.35
41703;BME280;861;48.808;9.006;2023-08-07T12:16:48;97283.84;;;17.65;63.16
41703;BME280;861;48.808;9.006;2023-08-07T12:19:14;97288.56;;;17.84;61.04
41703;BME280;861;48.808;9.006;2023-08-07T12:21:42;97290.66;;;17.96;58.54
41703;BME280;861;48.808;9.006;2023-08-07T12:24:09;97285.56;;;17.95;61.11
41703;BME280;861;48.808;9.006;2023-08-07T12:26:36;97276.00;;;18.35;58.01
41703;BME280;861;48.808;9.006;2023-08-07T12:29:02;97283.81;;;18.37;59.57
41703;BME280;861;48.808;9.006;2023-08-07T12:31:29;97279.81;;;18.41;58.80
41703;BME280;861;48.808;9.006;2023-08-07T12:33:56;97278.59;;;18.58;59.11
41703;BME280;861;48.808;9.006;2023-08-07T12:36:22;97278.50;;;18.62;59.62
41703;BME280;861;48.808;9.006;2023-08-07T12:38:49;97283.25;;;18.77;56.72
41703;BME280;861;48.808;9.006;2023-08-07T12:41:16;97278.34;;;18.69;59.06
41703;BME280;861;48.808;9.006;2023-08-07T12:43:42;97278.41;;;18.81;55.85
41703;BME280;861;48.808;9.006;2023-08-07T12:46:09;97266.38;;;18.59;58.30
41703;BME280;861;48.808;9.006;2023-08-07T12:48:36;97278.75;;;18.83;58.99
41703;BME280;861;48.808;9.006;2023-08-07T12:51:02;97273.06;;;18.74;57.05
41703;BME280;861;48.808;9.006;2023-08-07T12:53:29;97272.84;;;18.53;56.99
41703;BME280;861;48.808;9.006;2023-08-07T12:55:55;97277.03;;;18.89;55.62
41703;BME280;861;48.808;9.006;2023-08-07T12:58:22;97271.41;;;18.93;55.63
41703;BME280;861;48.808;9.006;2023-08-07T13:00:51;97288.00;;;18.77;57.55
41703;BME280;861;48.808;9.006;2023-08-07T13:03:18;97280.41;;;18.49;58.22
41703;BME280;861;48.808;9.006;2023-08-07T13:05:45;97283.69;;;18.44;57.26
41703;BME280;861;48.808;9.006;2023-08-07T13:08:11;97282.53;;;18.25;57.43
41703;BME280;861;48.808;9.006;2023-08-07T13:10:38;97286.22;;;18.02;59.17
41703;BME280;861;48.808;9.006;2023-08-07T13:13:05;97283.03;;;18.04;59.52
41703;BME280;861;48.808;9.006;2023-08-07T13:15:32;97273.41;;;18.12;59.76
41703;BME280;861;48.808;9.006;2023-08-07T13:17:58;97275.09;;;18.06;60.07
41703;BME280;861;48.808;9.006;2023-08-07T13:20:26;97269.25;;;18.20;58.84
41703;BME280;861;48.808;9.006;2023-08-07T13:22:53;97269.59;;;18.22;58.71
41703;BME280;861;48.808;9.006;2023-08-07T13:25:20;97267.44;;;18.29;57.59
41703;BME280;861;48.808;9.006;2023-08-07T13:27:46;97271.78;;;18.63;58.08
41703;BME280;861;48.808;9.006;2023-08-07T13:30:13;97280.00;;;19.11;56.98
41703;BME280;861;48.808;9.006;2023-08-07T13:32:40;97269.97;;;19.17;58.18
41703;BME280;861;48.808;9.006;2023-08-07T13:35:07;97274.56;;;19.07;58.68
41703;BME280;861;48.808;9.006;2023-08-07T13:37:35;97275.00;;;19.06;58.82
41703;BME280;861;48.808;9.006;2023-08-07T13:40:06;97256.69;;;19.12;56.37